createdAt,value
2023-02-11T00:04:53.480Z,166.38267
2023-02-11T00:09:55.223Z,161.66784
2023-02-11T00:14:56.991Z,157.88889
2023-02-11T00:19:58.773Z,154.23891
2023-02-11T00:25:00.563Z,155.68385
2023-02-11T00:30:02.433Z,157.14879
2023-02-11T00:35:04.309Z,164.78853
2023-02-11T00:40:06.848Z,160.90141
2023-02-11T00:45:08.812Z,160.14035
2023-02-11T00:50:10.534Z,157.88889
2023-02-11T00:55:12.421Z,156.41379
2023-02-11T01:00:14.253Z,156.41379
2023-02-11T01:05:16.068Z,153.52381
2023-02-11T01:10:18.123Z,159.38462
2023-02-11T01:15:19.902Z,160.14035
2023-02-11T01:20:21.706Z,158.63415
2023-02-11T01:25:23.479Z,156.41379
2023-02-11T01:30:25.229Z,154.23891
2023-02-11T01:35:27.027Z,149.33333
2023-02-11T01:40:28.983Z,157.14879
2023-02-11T01:45:30.800Z,153.52381
2023-02-11T01:50:32.580Z,149.33333
2023-02-11T01:55:34.192Z,152.81356
2023-02-11T02:00:35.769Z,145.96721
2023-02-11T02:05:37.240Z,151.40741
2023-02-11T02:10:39.010Z,153.52381
2023-02-11T02:15:40.663Z,150.71141
2023-02-11T02:20:42.428Z,148.65116
2023-02-11T02:25:44.088Z,150.71141
2023-02-11T02:30:45.809Z,146.63158
2023-02-11T02:35:47.888Z,142.70968
2023-02-11T02:40:50.098Z,145.30719
2023-02-11T02:45:52.175Z,144
2023-02-11T02:50:54.138Z,141.4359
2023-02-11T02:55:55.898Z,144.65147
2023-02-11T03:00:57.436Z,142.07074
2023-02-11T03:05:58.968Z,134.12346
2023-02-11T03:11:00.878Z,138.93671
2023-02-11T03:16:02.413Z,138.93671
2023-02-11T03:21:04.133Z,138.93671
2023-02-11T03:26:05.815Z,139.55556
2023-02-11T03:31:07.782Z,139.55556
2023-02-11T03:36:09.734Z,141.4359
2023-02-11T03:41:11.732Z,138.32177
2023-02-11T03:46:13.427Z,134.71207
2023-02-11T03:51:15.250Z,138.93671
2023-02-11T03:56:17.047Z,141.4359
2023-02-11T04:01:18.776Z,132.95706
2023-02-11T04:06:20.558Z,133.53846
2023-02-11T04:11:22.708Z,135.90031
2023-02-11T04:16:24.676Z,137.71069
2023-02-11T04:21:26.568Z,131.80488
2023-02-11T04:26:28.541Z,133.53846
2023-02-11T04:31:30.423Z,128.98498
2023-02-11T04:36:32.326Z,131.80488
2023-02-11T04:41:34.024Z,128.43114
2023-02-11T04:46:35.736Z,134.12346
2023-02-11T04:51:37.652Z,131.23404
2023-02-11T04:56:39.281Z,132.3792
2023-02-11T05:01:40.882Z,128.43114
2023-02-11T05:06:42.415Z,126.24852
2023-02-11T05:11:44.077Z,122.03468
2023-02-11T05:16:45.823Z,121.52161
2023-02-11T05:22:01.386Z,118.0113
2023-02-11T05:27:04.346Z,122.03468
2023-02-11T05:32:05.864Z,121.01149
2023-02-11T05:37:07.473Z,118.50425
2023-02-11T05:42:09.137Z,119.49858
2023-02-11T05:47:10.860Z,118.50425
2023-02-11T05:52:12.455Z,115.58774
2023-02-11T05:57:13.995Z,117.52113
2023-02-11T06:02:15.591Z,127.8806
2023-02-11T06:07:17.155Z,126.24852
2023-02-11T06:12:18.815Z,122.03468
2023-02-11T06:17:20.335Z,121.52161
2023-02-11T06:22:21.817Z,119
2023-02-11T06:27:23.244Z,117.03371
2023-02-11T06:32:42.779Z,121.01149
2023-02-11T06:37:46.465Z,119.49858
2023-02-11T06:42:48.474Z,122.03468
2023-02-11T06:47:50.221Z,118.50425
2023-02-11T06:52:51.954Z,119
2023-02-11T06:57:53.799Z,120
2023-02-11T07:02:55.626Z,119
2023-02-11T07:07:57.386Z,119
2023-02-11T07:12:59.360Z,118.50425
2023-02-11T07:18:01.035Z,120.5043
2023-02-11T07:23:02.827Z,119
2023-02-11T07:28:04.688Z,112.76712
2023-02-11T07:33:06.461Z,116.06704
2023-02-11T07:38:07.964Z,114.16575
2023-02-11T07:43:09.894Z,118.50425
2023-02-11T07:48:11.649Z,120
2023-02-11T07:53:13.385Z,118.50425
2023-02-11T07:58:15.243Z,116.06704
2023-02-11T08:03:17.071Z,114.63712
2023-02-11T08:08:18.861Z,118.50425
2023-02-11T08:13:20.933Z,116.06704
2023-02-11T08:18:22.716Z,114.63712
2023-02-11T08:23:24.537Z,114.63712
2023-02-11T08:28:26.445Z,109.5914
2023-02-11T08:33:27.976Z,113.23077
2023-02-11T08:38:29.781Z,110.03774
2023-02-11T08:43:31.863Z,110.48649
2023-02-11T08:48:33.610Z,106.53298
2023-02-11T08:53:35.185Z,105.25654
2023-02-11T08:58:36.772Z,109.14745
2023-02-11T09:03:38.347Z,108.70588
2023-02-11T09:08:39.943Z,109.5914
2023-02-11T09:13:41.590Z,106.96296
2023-02-11T09:18:43.078Z,106.10526
2023-02-11T09:23:44.556Z,107.39523
2023-02-11T09:28:46.141Z,109.5914
2023-02-11T09:33:47.819Z,108.70588
2023-02-11T09:38:49.453Z,112.76712
2023-02-11T09:43:51.214Z,109.14745
2023-02-11T09:48:52.987Z,112.30601
2023-02-11T09:53:54.445Z,109.5914
2023-02-11T09:58:56.231Z,109.14745
2023-02-11T10:03:57.809Z,107.82979
2023-02-11T10:08:59.622Z,108.26667
2023-02-11T10:14:01.393Z,108.70588
2023-02-11T10:19:03.163Z,111.3913
2023-02-11T10:24:04.625Z,110.93767
2023-02-11T10:29:06.101Z,107.39523
2023-02-11T10:34:07.620Z,106.53298
2023-02-11T10:39:09.196Z,103.17313
2023-02-11T10:44:10.932Z,108.26667
2023-02-11T10:49:12.442Z,116.54902
2023-02-11T10:54:14.038Z,128.98498
2023-02-11T10:59:15.479Z,124.64516
2023-02-11T11:04:16.954Z,137.71069
2023-02-11T11:09:18.537Z,125.71091
2023-02-11T11:14:20.165Z,124.11696
2023-02-11T11:19:21.860Z,145.30719
2023-02-11T11:24:25.469Z,145.96721
2023-02-11T11:29:28.260Z,138.32177
2023-02-11T11:34:29.807Z,138.32177
2023-02-11T11:39:31.294Z,134.71207
2023-02-11T11:44:33.069Z,134.71207
2023-02-11T11:49:34.655Z,127.33333
2023-02-11T11:54:36.317Z,116.54902
2023-02-11T11:59:38.201Z,117.03371
2023-02-11T12:04:39.729Z,111.3913
2023-02-11T12:09:41.353Z,114.63712
2023-02-11T12:14:43.384Z,126.24852
2023-02-11T12:19:44.811Z,126.24852
2023-02-11T12:24:46.295Z,127.33333
2023-02-11T12:29:48.123Z,136.5
2023-02-11T12:34:49.696Z,146.63158
2023-02-11T12:39:51.203Z,145.30719
2023-02-11T12:44:52.955Z,148.65116
2023-02-11T12:49:54.646Z,145.96721
2023-02-11T12:54:56.243Z,163.21708
2023-02-11T12:59:58.129Z,160.90141
2023-02-11T13:04:59.683Z,147.97351
2023-02-11T13:10:01.230Z,169.64103
2023-02-11T13:15:03.175Z,155.68385
2023-02-11T13:20:04.713Z,156.41379
2023-02-11T13:25:06.512Z,139.55556
2023-02-11T13:30:07.997Z,158.63415
2023-02-11T13:35:09.561Z,156.41379
2023-02-11T13:40:11.123Z,143.35275
2023-02-11T13:45:12.775Z,130.10272
2023-02-11T13:50:14.257Z,128.43114
2023-02-11T13:55:15.761Z,141.4359
2023-02-11T14:00:17.362Z,150.02007
2023-02-11T14:05:18.932Z,135.90031
2023-02-11T14:10:20.429Z,135.90031
2023-02-11T14:15:22.298Z,132.95706
2023-02-11T14:20:23.822Z,138.93671
2023-02-11T14:25:25.584Z,140.17834
2023-02-11T14:30:27.225Z,142.70968
2023-02-11T14:35:28.974Z,139.55556
2023-02-11T14:40:30.472Z,131.23404
2023-02-11T14:45:32.490Z,125.17647
2023-02-11T14:50:34.037Z,134.12346
2023-02-11T14:55:35.535Z,122.55072
2023-02-11T15:00:37.109Z,125.71091
2023-02-11T15:05:38.581Z,128.98498
2023-02-11T15:10:40.094Z,121.01149
2023-02-11T15:15:41.796Z,116.06704
2023-02-11T15:20:43.346Z,118.0113
2023-02-11T15:25:44.772Z,114.63712
2023-02-11T15:30:46.429Z,124.64516
2023-02-11T15:35:48.010Z,128.43114
2023-02-11T15:40:50.399Z,137.10345
2023-02-11T15:45:52.234Z,125.71091
2023-02-11T15:50:53.985Z,116.06704
2023-02-11T15:55:55.886Z,123.06977
2023-02-11T16:00:57.686Z,121.52161
2023-02-11T16:05:59.425Z,123.59184
2023-02-11T16:11:01.167Z,127.33333
2023-02-11T16:16:03.028Z,118.50425
2023-02-11T16:21:04.602Z,115.58774
2023-02-11T16:26:06.482Z,108.26667
2023-02-11T16:31:08.445Z,109.5914
2023-02-11T16:36:09.958Z,96.8536
2023-02-11T16:41:11.554Z,106.96296
2023-02-11T16:46:13.294Z,104.41667
2023-02-11T16:51:14.937Z,106.10526
2023-02-11T16:56:16.440Z,100.34518
2023-02-11T17:01:18.095Z,99.94937
2023-02-11T17:06:19.891Z,99.94937
2023-02-11T17:11:21.711Z,104
2023-02-11T17:16:23.775Z,114.16575
2023-02-11T17:21:27.051Z,124.11696
2023-02-11T17:26:29.927Z,138.32177
2023-02-11T17:31:31.910Z,133.53846
2023-02-11T17:36:33.838Z,137.71069
2023-02-11T17:41:35.328Z,137.10345
2023-02-11T17:46:37.348Z,134.12346
2023-02-11T17:51:39.093Z,135.30435
2023-02-11T17:56:40.687Z,130.10272
2023-02-11T18:01:42.438Z,127.8806
2023-02-11T18:06:43.906Z,139.55556
2023-02-11T18:11:45.375Z,147.30033
2023-02-11T18:16:47.272Z,157.88889
2023-02-11T18:21:48.950Z,154.9589
2023-02-11T18:26:50.548Z,157.88889
2023-02-11T18:31:52.499Z,157.88889
2023-02-11T18:36:54.343Z,165.58273
2023-02-11T18:41:56.118Z,161.66784
2023-02-11T18:46:57.962Z,156.41379
2023-02-11T18:51:59.629Z,148.65116
2023-02-11T18:57:01.053Z,150.71141
2023-02-11T19:02:02.738Z,142.07074
2023-02-11T19:07:05.492Z,145.30719
2023-02-11T19:12:06.969Z,154.9589
2023-02-11T19:17:08.841Z,154.9589
2023-02-11T19:22:11.166Z,160.14035
2023-02-11T19:27:12.628Z,160.90141
2023-02-11T19:32:14.299Z,149.33333
2023-02-11T19:37:16.123Z,155.68385
2023-02-11T19:42:18.019Z,145.96721
2023-02-11T19:47:20.286Z,135.90031
2023-02-11T19:52:22.059Z,130.66667
2023-02-11T19:57:23.563Z,130.10272
2023-02-11T20:02:25.152Z,123.59184
2023-02-11T20:07:26.712Z,129.54217
2023-02-11T20:12:28.221Z,123.59184
2023-02-11T20:17:29.949Z,118.50425
2023-02-11T20:22:31.507Z,119
2023-02-11T20:27:33.011Z,117.52113
2023-02-11T20:32:34.683Z,118.0113
2023-02-11T20:37:36.127Z,112.30601
2023-02-11T20:42:37.694Z,111.84741
2023-02-11T20:47:39.381Z,115.11111
2023-02-11T20:52:40.951Z,115.11111
2023-02-11T20:57:42.469Z,119.49858
2023-02-11T21:02:44.054Z,121.52161
2023-02-11T21:07:45.531Z,116.54902
2023-02-11T21:12:49.564Z,116.06704
2023-02-11T21:17:51.782Z,113.69697
2023-02-11T21:22:53.298Z,111.84741
2023-02-11T21:27:55.089Z,112.76712
2023-02-11T21:32:56.871Z,110.93767
2023-02-11T21:37:58.400Z,109.5914
2023-02-11T21:43:00.007Z,109.5914
2023-02-11T21:48:01.769Z,108.70588
2023-02-11T21:53:05.936Z,107.39523
2023-02-11T21:58:08.446Z,103.17313
2023-02-11T22:03:09.952Z,103.58549
2023-02-11T22:08:11.414Z,101.94872
2023-02-11T22:13:13.006Z,101.54476
2023-02-11T22:18:14.954Z,102.76289
2023-02-11T22:23:16.553Z,102.35476
2023-02-11T22:28:18.127Z,102.76289
2023-02-11T22:33:19.601Z,103.58549
2023-02-11T22:38:21.162Z,103.58549
2023-02-11T22:43:22.626Z,100.743
2023-02-11T22:48:24.373Z,98
2023-02-11T22:53:26.122Z,101.14286
2023-02-11T22:58:27.640Z,99.94937
2023-02-11T23:03:29.232Z,98
2023-02-11T23:08:30.674Z,100.34518
2023-02-11T23:13:32.393Z,100.743
2023-02-11T23:18:34.046Z,99.94937
2023-02-11T23:23:35.497Z,101.54476
2023-02-11T23:28:37.044Z,101.14286
2023-02-11T23:33:39.088Z,102.76289
2023-02-11T23:38:40.548Z,104.41667
2023-02-11T23:43:42.108Z,105.67979
2023-02-11T23:48:43.905Z,103.17313
2023-02-11T23:53:45.439Z,101.54476
2023-02-11T23:58:47.019Z,101.54476
